createdAt,value
2022-08-18T00:01:33.741Z,99154.78
2022-08-18T00:11:08.500Z,99151.06
2022-08-18T00:20:42.902Z,99152.45
2022-08-18T00:30:17.317Z,99150.50
2022-08-18T00:39:52.041Z,99163.50
2022-08-18T00:49:28.253Z,99196.67
2022-08-18T00:59:01.650Z,99191.45
2022-08-18T01:08:36.469Z,99201.09
2022-08-18T01:18:12.761Z,99196.31
2022-08-18T01:27:46.366Z,99184.91
2022-08-18T01:37:20.749Z,99184.17
2022-08-18T01:46:55.295Z,99180.23
2022-08-18T01:56:29.584Z,99172.38
2022-08-18T02:06:04.103Z,99169.81
2022-08-18T02:15:38.913Z,99172.17
2022-08-18T02:25:13.595Z,99167.09
2022-08-18T02:34:48.558Z,99167.55
2022-08-18T02:44:24.685Z,99163.89
2022-08-18T02:53:57.850Z,99177.99
2022-08-18T03:03:32.518Z,99181.02
2022-08-18T03:13:07.566Z,99185.56
2022-08-18T03:22:42.356Z,99174.69
2022-08-18T03:32:17.031Z,99176.14
2022-08-18T03:41:57.864Z,99180.34
2022-08-18T03:51:26.955Z,99179.31
2022-08-18T04:01:05.119Z,99175.94
2022-08-18T04:10:36.415Z,99174.27
2022-08-18T04:20:10.929Z,99173.52
2022-08-18T04:29:43.884Z,99169.64
2022-08-18T04:39:18.566Z,99177.25
2022-08-18T04:48:53.141Z,99179.81
2022-08-18T04:49:57.362Z,99181.27
2022-08-18T04:59:29.700Z,99191.93
2022-08-18T05:09:06.001Z,99199.46
2022-08-18T05:18:38.950Z,99216.38
2022-08-18T05:28:13.153Z,99223.28
2022-08-18T05:37:51.109Z,99226.05
2022-08-18T05:47:23.773Z,99235.83
2022-08-18T05:56:59.988Z,99241.94
2022-08-18T06:06:30.220Z,99230.31
2022-08-18T06:16:05.664Z,99221.14
2022-08-18T06:25:36.951Z,99207.80
2022-08-18T06:35:11.030Z,99211.56
2022-08-18T06:44:47.338Z,99223.48
2022-08-18T06:54:21.393Z,99230.27
2022-08-18T07:03:54.040Z,99225.85
2022-08-18T07:13:30.062Z,99237.05
2022-08-18T07:14:32.801Z,99238.78
2022-08-18T07:24:24.104Z,99243.97
2022-08-18T07:25:09.073Z,99244.33
2022-08-18T07:26:15.736Z,99240.20
2022-08-18T07:27:17.257Z,99239.73
2022-08-18T07:28:21.243Z,99244.67
2022-08-18T07:29:25.237Z,99242.94
2022-08-18T07:30:27.628Z,99242.09
2022-08-18T07:31:30.096Z,99242.72
2022-08-18T07:41:03.139Z,99257.66
2022-08-18T07:42:07.263Z,99261.27
2022-08-18T07:43:09.668Z,99262.24
2022-08-18T07:44:13.907Z,99265.88
2022-08-18T07:45:14.697Z,99261.31
2022-08-18T07:46:17.179Z,99267.04
2022-08-18T07:47:19.707Z,99269.30
2022-08-18T07:48:40.116Z,99267.05
2022-08-18T07:49:24.792Z,99267.33
2022-08-18T07:50:55.413Z,99267.33
2022-08-18T07:51:31.747Z,99271.97
2022-08-18T07:52:36.767Z,99274.45
2022-08-18T07:53:36.876Z,99277.13
2022-08-18T07:54:49.677Z,99276.91
2022-08-18T07:55:42.849Z,99275.72
2022-08-18T07:56:45.400Z,99280.52
2022-08-18T07:57:49.483Z,99284.42
2022-08-18T07:58:51.844Z,99286.88
2022-08-18T07:59:54.374Z,99284.33
2022-08-18T08:00:59.051Z,99285.36
2022-08-18T08:01:59.500Z,99286.67
2022-08-18T08:03:01.996Z,99286.84
2022-08-18T08:04:04.527Z,99287.36
2022-08-18T08:05:07.129Z,99287.66
2022-08-18T08:06:09.658Z,99291.94
2022-08-18T08:07:27.452Z,99289.20
2022-08-18T08:08:14.636Z,99288.96
2022-08-18T08:09:17.173Z,99292.42
2022-08-18T08:10:22.662Z,99294.80
2022-08-18T08:11:26.544Z,99292.61
2022-08-18T08:12:30.572Z,99295.05
2022-08-18T08:13:53.884Z,99296.34
2022-08-18T08:14:35.508Z,99292.09
2022-08-18T08:15:39.648Z,99291.44
2022-08-18T08:16:43.637Z,99294.21
2022-08-18T08:17:47.627Z,99295.59
2022-08-18T08:18:50.000Z,99297.06
2022-08-18T08:20:01.134Z,99294.98
2022-08-18T08:20:55.155Z,99293.95
2022-08-18T08:21:57.672Z,99292.17
2022-08-18T08:23:00.235Z,99293.39
2022-08-18T08:24:02.764Z,99296.05
2022-08-18T08:25:13.646Z,99292.77
2022-08-18T08:26:07.942Z,99291.36
2022-08-18T08:27:10.469Z,99296.75
2022-08-18T08:28:14.624Z,99294.98
2022-08-18T08:29:17.075Z,99294.67
2022-08-18T08:30:19.709Z,99293.92
2022-08-18T08:39:52.096Z,99298.81
2022-08-18T08:40:54.629Z,99296.45
2022-08-18T08:42:00.407Z,99297.31
2022-08-18T08:42:59.787Z,99299.30
2022-08-18T08:44:02.409Z,99299.44
2022-08-18T08:45:05.987Z,99300.44
2022-08-18T08:46:08.493Z,99307.73
2022-08-18T08:47:11.065Z,99305.81
2022-08-18T08:48:14.623Z,99306.44
2022-08-18T08:49:16.099Z,99307.81
2022-08-18T08:50:18.711Z,99306.38
2022-08-18T08:51:21.290Z,99305.45
2022-08-18T08:52:23.770Z,99306.06
2022-08-18T08:53:27.939Z,99306.17
2022-08-18T08:54:30.322Z,99305.47
2022-08-18T08:55:32.825Z,99302.07
2022-08-18T08:56:36.928Z,99301.92
2022-08-18T08:57:39.307Z,99302.95
2022-08-18T08:58:41.729Z,99301.09
2022-08-18T08:59:45.820Z,99301.52
2022-08-18T09:00:51.564Z,99298.45
2022-08-18T09:01:52.285Z,99298.13
2022-08-18T09:02:54.766Z,99299.06
2022-08-18T09:03:58.960Z,99296.17
2022-08-18T09:05:08.107Z,99300.02
2022-08-18T09:06:03.984Z,99300.79
2022-08-18T09:07:08.160Z,99302.71
2022-08-18T09:08:10.639Z,99301.00
2022-08-18T09:09:13.150Z,99303.81
2022-08-18T09:10:15.778Z,99308.19
2022-08-18T09:11:18.306Z,99310.06
2022-08-18T09:12:20.825Z,99310.36
2022-08-18T09:13:28.489Z,99307.19
2022-08-18T09:14:27.517Z,99308.13
2022-08-18T09:15:30.049Z,99309.59
2022-08-18T09:16:32.644Z,99308.98
2022-08-18T09:17:36.756Z,99317.56
2022-08-18T09:18:39.182Z,99310.12
2022-08-18T09:19:44.450Z,99317.84
2022-08-18T09:20:49.146Z,99316.63
2022-08-18T09:21:50.986Z,99318.88
2022-08-18T09:22:53.521Z,99318.19
2022-08-18T09:23:55.952Z,99320.84
2022-08-18T09:24:58.542Z,99316.89
2022-08-18T09:26:02.764Z,99319.70
2022-08-18T09:27:05.278Z,99317.15
2022-08-18T09:28:11.132Z,99316.28
2022-08-18T09:29:11.856Z,99314.33
2022-08-18T09:30:14.669Z,99316.91
2022-08-18T09:31:19.466Z,99312.79
2022-08-18T09:32:22.766Z,99315.36
2022-08-18T09:33:26.917Z,99316.73
2022-08-18T09:34:29.172Z,99315.38
2022-08-18T09:35:31.946Z,99311.72
2022-08-18T09:36:34.455Z,99320.67
2022-08-18T09:37:41.251Z,99320.06
2022-08-18T09:38:43.222Z,99319.22
2022-08-18T09:39:49.088Z,99315.63
2022-08-18T09:41:02.174Z,99317.00
2022-08-18T09:41:51.070Z,99315.80
2022-08-18T09:42:53.628Z,99315.14
2022-08-18T09:43:56.439Z,99316.92
2022-08-18T09:44:58.932Z,99317.70
2022-08-18T09:46:01.480Z,99313.44
2022-08-18T09:47:04.226Z,99315.69
2022-08-18T09:48:08.855Z,99316.81
2022-08-18T09:49:10.276Z,99317.70
2022-08-18T09:50:24.481Z,99313.52
2022-08-18T09:52:20.615Z,99315.31
2022-08-18T09:53:23.064Z,99316.91
2022-08-18T09:54:25.646Z,99311.28
2022-08-18T09:55:28.826Z,99313.09
2022-08-18T09:56:32.461Z,99312.67
2022-08-18T09:57:41.381Z,99313.34
2022-08-18T09:58:39.129Z,99312.58
2022-08-18T09:59:41.867Z,99312.41
2022-08-18T10:00:44.333Z,99313.63
2022-08-18T10:02:56.149Z,99314.92
2022-08-18T10:03:58.109Z,99317.14
2022-08-18T10:05:03.582Z,99318.94
2022-08-18T10:06:12.505Z,99317.42
2022-08-18T10:07:13.091Z,99321.53
2022-08-18T10:09:27.331Z,99316.50
2022-08-18T10:11:27.592Z,99321.38
2022-08-18T10:12:30.003Z,99325.31
2022-08-18T10:13:32.535Z,99325.65
2022-08-18T10:14:35.188Z,99330.76
2022-08-18T10:15:40.524Z,99328.83
2022-08-18T10:17:12.904Z,99330.52
2022-08-18T10:17:49.962Z,99331.39
2022-08-18T10:18:52.983Z,99328.31
2022-08-18T10:19:54.696Z,99328.41
2022-08-18T10:21:02.847Z,99330.22
2022-08-18T10:22:05.111Z,99324.66
2022-08-18T10:23:07.606Z,99319.16
2022-08-18T10:25:23.515Z,99315.92
2022-08-18T10:26:19.639Z,99314.83
2022-08-18T10:27:23.926Z,99314.91
2022-08-18T10:28:26.369Z,99313.02
2022-08-18T10:29:31.507Z,99315.16
2022-08-18T10:30:34.382Z,99309.63
2022-08-18T10:31:36.493Z,99313.55
2022-08-18T10:32:40.671Z,99312.76
2022-08-18T10:33:43.155Z,99306.36
2022-08-18T10:34:51.539Z,99301.48
2022-08-18T10:35:52.797Z,99305.18
2022-08-18T10:36:58.835Z,99305.09
2022-08-18T10:37:59.600Z,99304.39
2022-08-18T10:39:02.074Z,99306.13
2022-08-18T10:40:04.774Z,99312.45
2022-08-18T10:41:10.143Z,99313.58
2022-08-18T10:42:11.056Z,99311.00
2022-08-18T10:51:58.181Z,99295.36
2022-08-18T10:52:51.261Z,99291.34
2022-08-18T10:53:50.490Z,99289.73
2022-08-18T10:54:54.394Z,99286.51
2022-08-18T10:55:55.185Z,99292.88
2022-08-18T10:56:57.954Z,99293.56
2022-08-18T10:58:05.492Z,99296.83
2022-08-18T10:59:07.647Z,99298.19
2022-08-18T11:00:11.365Z,99302.90
2022-08-18T11:01:13.794Z,99304.63
2022-08-18T11:02:16.420Z,99309.59
2022-08-18T11:03:42.922Z,99307.24
2022-08-18T11:04:33.700Z,99305.10
2022-08-18T11:05:25.217Z,99306.00
2022-08-18T11:06:30.394Z,99301.52
2022-08-18T11:07:34.190Z,99301.44
2022-08-18T11:08:37.047Z,99302.78
2022-08-18T11:09:41.459Z,99302.44
2022-08-18T11:10:50.795Z,99305.52
2022-08-18T11:11:52.984Z,99305.70
2022-08-18T11:12:48.997Z,99303.37
2022-08-18T11:13:51.565Z,99305.77
2022-08-18T11:14:55.758Z,99310.39
2022-08-18T11:15:59.812Z,99308.41
2022-08-18T11:17:02.357Z,99309.77
2022-08-18T11:18:04.945Z,99310.79
2022-08-18T11:19:07.690Z,99316.12
2022-08-18T11:20:10.228Z,99308.82
2022-08-18T11:21:14.390Z,99313.17
2022-08-18T11:22:16.902Z,99301.60
2022-08-18T11:23:19.508Z,99296.93
2022-08-18T11:24:23.644Z,99285.50
2022-08-18T11:25:28.046Z,99273.74
2022-08-18T11:26:30.193Z,99262.56
2022-08-18T11:27:32.781Z,99253.77
2022-08-18T11:28:38.947Z,99242.52
2022-08-18T11:29:37.919Z,99232.16
2022-08-18T11:30:40.500Z,99225.68
2022-08-18T11:31:46.059Z,99218.42
2022-08-18T11:32:51.491Z,99211.02
2022-08-18T11:33:51.332Z,99205.28
2022-08-18T11:34:53.706Z,99204.05
2022-08-18T11:35:56.189Z,99210.42
2022-08-18T11:37:00.307Z,99208.25
2022-08-18T11:38:02.771Z,99211.30
2022-08-18T11:39:08.126Z,99219.77
2022-08-18T11:40:14.023Z,99217.30
2022-08-18T11:41:13.490Z,99220.23
2022-08-18T11:42:15.768Z,99224.83
2022-08-18T11:43:21.178Z,99224.07
2022-08-18T11:44:22.212Z,99230.78
2022-08-18T11:45:26.501Z,99233.31
2022-08-18T11:46:30.211Z,99242.73
2022-08-18T11:47:33.185Z,99243.13
2022-08-18T11:48:36.192Z,99251.59
2022-08-18T11:49:38.158Z,99248.80
2022-08-18T11:50:43.681Z,99241.14
2022-08-18T11:51:46.011Z,99238.95
2022-08-18T11:52:48.616Z,99233.75
2022-08-18T11:53:57.553Z,99240.28
2022-08-18T11:54:55.350Z,99240.23
2022-08-18T11:55:59.356Z,99252.96
2022-08-18T11:57:04.465Z,99254.38
2022-08-18T11:59:11.617Z,99254.38
2022-08-18T12:00:23.894Z,99253.98
2022-08-18T12:01:17.567Z,99246.23
2022-08-18T12:10:51.003Z,99225.83
2022-08-18T12:11:53.425Z,99225.13
2022-08-18T12:12:56.248Z,99219.98
2022-08-18T12:13:58.537Z,99214.43
2022-08-18T12:15:11.934Z,99218.84
2022-08-18T12:16:05.236Z,99214.83
2022-08-18T12:17:07.594Z,99221.18
2022-08-18T12:18:10.142Z,99223.45
2022-08-18T12:19:12.624Z,99220.45
2022-08-18T12:20:15.156Z,99223.66
2022-08-18T12:21:19.289Z,99226.66
2022-08-18T12:22:23.265Z,99227.88
2022-08-18T12:23:25.669Z,99227.33
2022-08-18T12:25:33.054Z,99222.80
2022-08-18T12:26:38.444Z,99220.91
2022-08-18T12:27:38.085Z,99221.36
2022-08-18T12:28:40.657Z,99220.23
2022-08-18T12:29:44.740Z,99211.44
2022-08-18T12:30:48.690Z,99215.60
2022-08-18T12:31:52.678Z,99210.69
2022-08-18T12:32:56.456Z,99211.22
2022-08-18T12:34:00.217Z,99209.66
2022-08-18T12:35:05.257Z,99209.28
2022-08-18T12:36:04.230Z,99212.19
2022-08-18T12:37:10.372Z,99209.52
2022-08-18T12:38:12.611Z,99212.50
2022-08-18T12:39:10.086Z,99208.27
2022-08-18T12:40:12.715Z,99208.31
2022-08-18T12:41:17.482Z,99205.63
2022-08-18T12:50:50.397Z,99203.61
2022-08-18T12:51:50.680Z,99207.95
2022-08-18T12:52:53.072Z,99205.28
2022-08-18T12:53:58.682Z,99203.65
2022-08-18T12:54:57.902Z,99205.88
2022-08-18T12:56:02.002Z,99207.69
2022-08-18T12:57:04.382Z,99206.56
2022-08-18T12:58:08.582Z,99202.57
2022-08-18T12:59:11.002Z,99200.94
2022-08-18T13:00:16.842Z,99199.21
2022-08-18T13:01:17.585Z,99199.98
2022-08-18T13:02:20.171Z,99199.59
2022-08-18T13:03:24.154Z,99204.89
2022-08-18T13:04:26.927Z,99207.73
2022-08-18T13:05:30.627Z,99211.81
2022-08-18T13:06:33.017Z,99208.55
2022-08-18T13:07:35.606Z,99205.02
2022-08-18T13:08:38.204Z,99207.00
2022-08-18T13:09:47.689Z,99202.19
2022-08-18T13:10:46.034Z,99205.75
2022-08-18T13:11:45.640Z,99203.95
2022-08-18T13:12:48.082Z,99202.32
2022-08-18T13:13:52.621Z,99192.78
2022-08-18T13:14:54.685Z,99194.16
2022-08-18T13:16:01.185Z,99190.11
2022-08-18T13:17:03.064Z,99188.17
2022-08-18T13:18:05.438Z,99185.66
2022-08-18T13:19:07.930Z,99185.70
2022-08-18T13:20:10.433Z,99185.56
2022-08-18T13:21:12.945Z,99183.94
2022-08-18T13:22:15.464Z,99176.53
2022-08-18T13:23:21.286Z,99176.44
2022-08-18T13:24:21.202Z,99174.41
2022-08-18T13:25:29.012Z,99170.88
2022-08-18T13:26:25.581Z,99172.38
2022-08-18T13:27:31.091Z,99169.48
2022-08-18T13:28:30.892Z,99168.73
2022-08-18T13:29:33.114Z,99172.38
2022-08-18T13:30:35.799Z,99175.42
2022-08-18T13:31:39.839Z,99181.13
2022-08-18T13:32:57.599Z,99184.32
2022-08-18T13:33:53.502Z,99184.98
2022-08-18T13:34:49.998Z,99184.34
2022-08-18T13:35:52.189Z,99185.91
2022-08-18T13:36:53.175Z,99187.72
2022-08-18T13:37:57.385Z,99185.91
2022-08-18T13:39:02.322Z,99183.40
2022-08-18T13:40:04.695Z,99182.06
2022-08-18T13:41:07.204Z,99183.80
2022-08-18T13:42:21.961Z,99180.06
2022-08-18T13:43:13.586Z,99176.78
2022-08-18T13:44:18.541Z,99171.81
2022-08-18T13:45:23.117Z,99172.06
2022-08-18T13:46:24.156Z,99173.16
2022-08-18T13:47:23.669Z,99172.12
2022-08-18T13:48:26.088Z,99173.34
2022-08-18T13:49:31.232Z,99176.35
2022-08-18T13:50:33.543Z,99174.02
2022-08-18T13:51:36.073Z,99173.86
2022-08-18T13:52:44.046Z,99176.75
2022-08-18T13:53:51.372Z,99169.64
2022-08-18T13:54:46.579Z,99172.20
2022-08-18T13:55:49.188Z,99168.18
2022-08-18T13:56:53.153Z,99163.73
2022-08-18T13:57:55.955Z,99169.88
2022-08-18T13:58:58.071Z,99164.12
2022-08-18T14:00:00.662Z,99161.11
2022-08-18T14:01:37.580Z,99161.64
2022-08-18T14:02:08.528Z,99159.87
2022-08-18T14:03:11.347Z,99151.52
2022-08-18T14:04:20.367Z,99151.95
2022-08-18T14:05:17.751Z,99153.13
2022-08-18T14:06:22.221Z,99147.50
2022-08-18T14:07:24.722Z,99150.83
2022-08-18T14:08:26.870Z,99150.12
2022-08-18T14:09:36.846Z,99153.45
2022-08-18T14:10:31.861Z,99152.18
2022-08-18T14:11:34.439Z,99152.16
2022-08-18T14:12:36.971Z,99151.80
2022-08-18T14:13:43.469Z,99151.17
2022-08-18T14:14:45.142Z,99149.02
2022-08-18T14:15:51.574Z,99154.34
2022-08-18T14:16:51.622Z,99151.03
2022-08-18T14:17:54.367Z,99158.64
2022-08-18T14:18:56.549Z,99157.06
2022-08-18T14:20:00.704Z,99155.64
2022-08-18T14:21:03.074Z,99155.51
2022-08-18T14:22:07.209Z,99153.63
2022-08-18T14:23:11.170Z,99147.34
2022-08-18T14:24:14.025Z,99146.41
2022-08-18T14:25:16.104Z,99141.53
2022-08-18T14:26:18.645Z,99138.81
2022-08-18T14:36:04.745Z,99133.16
2022-08-18T14:36:56.259Z,99132.52
2022-08-18T14:37:58.799Z,99133.31
2022-08-18T14:39:02.885Z,99131.95
2022-08-18T14:40:07.054Z,99134.95
2022-08-18T14:41:09.353Z,99132.16
2022-08-18T14:42:12.161Z,99132.28
2022-08-18T14:43:14.394Z,99137.69
2022-08-18T14:44:18.191Z,99136.42
2022-08-18T14:45:26.825Z,99132.59
2022-08-18T14:46:23.554Z,99136.86
2022-08-18T14:47:29.914Z,99133.64
2022-08-18T14:48:29.759Z,99137.42
2022-08-18T14:49:33.829Z,99134.28
2022-08-18T14:50:36.181Z,99136.98
2022-08-18T14:51:40.338Z,99134.05
2022-08-18T14:52:42.644Z,99141.09
2022-08-18T14:53:45.132Z,99137.46
2022-08-18T14:54:51.151Z,99137.74
2022-08-18T14:55:51.632Z,99139.55
2022-08-18T14:56:55.699Z,99139.41
2022-08-18T14:57:59.331Z,99138.91
2022-08-18T14:59:02.266Z,99136.55
2022-08-18T15:00:06.222Z,99136.20
2022-08-18T15:01:10.467Z,99137.60
2022-08-18T15:02:13.453Z,99139.73
2022-08-18T15:03:14.994Z,99135.57
2022-08-18T15:04:19.855Z,99138.98
2022-08-18T15:05:24.247Z,99139.28
2022-08-18T15:06:28.857Z,99137.11
2022-08-18T15:07:32.735Z,99140.68
2022-08-18T15:08:35.305Z,99139.73
2022-08-18T15:09:37.458Z,99136.98
2022-08-18T15:10:39.937Z,99141.92
2022-08-18T15:11:42.459Z,99139.94
2022-08-18T15:12:46.551Z,99138.94
2022-08-18T15:13:49.003Z,99133.03
2022-08-18T15:14:52.465Z,99133.98
2022-08-18T15:15:54.856Z,99136.22
2022-08-18T15:16:58.953Z,99139.36
2022-08-18T15:18:03.012Z,99138.58
2022-08-18T15:19:37.879Z,99140.23
2022-08-18T15:20:07.886Z,99140.20
2022-08-18T15:21:19.283Z,99140.72
2022-08-18T15:22:12.804Z,99142.23
2022-08-18T15:23:15.339Z,99142.66
2022-08-18T15:24:19.601Z,99142.14
2022-08-18T15:25:23.965Z,99144.52
2022-08-18T15:26:24.510Z,99142.64
2022-08-18T15:27:42.097Z,99142.61
2022-08-18T15:28:29.696Z,99138.59
2022-08-18T15:29:33.785Z,99143.34
2022-08-18T15:30:37.775Z,99138.67
2022-08-18T15:32:00.158Z,99137.07
2022-08-18T15:32:45.637Z,99134.37
2022-08-18T15:33:50.284Z,99138.88
2022-08-18T15:34:52.121Z,99141.21
2022-08-18T15:35:54.519Z,99141.09
2022-08-18T15:36:57.052Z,99140.59
2022-08-18T15:37:59.538Z,99142.05
2022-08-18T15:39:03.629Z,99141.73
2022-08-18T15:40:06.033Z,99140.09
2022-08-18T15:41:09.385Z,99139.45
2022-08-18T15:42:13.501Z,99137.83
2022-08-18T15:43:17.685Z,99139.29
2022-08-18T15:44:19.139Z,99137.50
2022-08-18T15:45:26.533Z,99138.52
2022-08-18T15:46:25.467Z,99139.02
2022-08-18T15:47:29.554Z,99144.59
2022-08-18T15:48:33.524Z,99141.13
2022-08-18T15:49:35.874Z,99146.72
2022-08-18T15:50:39.998Z,99148.36
2022-08-18T15:51:42.352Z,99149.95
2022-08-18T15:52:46.584Z,99151.52
2022-08-18T15:53:48.875Z,99148.28
2022-08-18T15:54:51.679Z,99151.19
2022-08-18T15:55:53.865Z,99151.96
2022-08-18T15:56:58.007Z,99145.77
2022-08-18T15:57:58.937Z,99150.03
2022-08-18T15:59:01.350Z,99143.73
2022-08-18T16:00:03.882Z,99148.06
2022-08-18T16:01:21.081Z,99143.89
2022-08-18T16:02:11.705Z,99139.75
2022-08-18T16:03:11.271Z,99139.00
2022-08-18T16:04:15.469Z,99139.41
2022-08-18T16:05:17.778Z,99141.38
2022-08-18T16:06:21.917Z,99138.22
2022-08-18T16:07:25.137Z,99133.88
2022-08-18T16:08:26.750Z,99137.60
2022-08-18T16:09:29.224Z,99137.06
2022-08-18T16:10:31.717Z,99138.42
2022-08-18T16:11:35.792Z,99131.24
2022-08-18T16:12:38.196Z,99137.11
2022-08-18T16:13:40.731Z,99135.73
2022-08-18T16:14:43.266Z,99133.86
2022-08-18T16:15:45.769Z,99132.63
2022-08-18T16:16:48.284Z,99133.78
2022-08-18T16:17:50.935Z,99132.77
2022-08-18T16:18:53.348Z,99130.53
2022-08-18T16:19:55.868Z,99125.67
2022-08-18T16:20:58.414Z,99128.63
2022-08-18T16:22:00.870Z,99130.47
2022-08-18T16:23:03.269Z,99133.67
2022-08-18T16:24:05.791Z,99133.64
2022-08-18T16:25:09.925Z,99140.91
2022-08-18T16:26:13.963Z,99133.04
2022-08-18T16:27:16.324Z,99136.89
2022-08-18T16:28:20.460Z,99140.87
2022-08-18T16:29:22.851Z,99144.78
2022-08-18T16:30:25.347Z,99141.27
2022-08-18T16:31:29.499Z,99140.09
2022-08-18T16:32:31.828Z,99136.97
2022-08-18T16:33:35.933Z,99142.55
2022-08-18T16:34:38.357Z,99140.98
2022-08-18T16:35:42.306Z,99139.64
2022-08-18T16:36:43.311Z,99135.61
2022-08-18T16:37:45.873Z,99142.38
2022-08-18T16:38:53.247Z,99139.25
2022-08-18T16:39:52.435Z,99143.43
2022-08-18T16:40:55.882Z,99142.20
2022-08-18T16:41:58.287Z,99142.38
2022-08-18T16:43:00.768Z,99143.80
2022-08-18T16:44:03.308Z,99144.72
2022-08-18T16:45:05.846Z,99139.86
2022-08-18T16:46:08.324Z,99142.02
2022-08-18T16:47:12.445Z,99141.47
2022-08-18T16:48:17.011Z,99140.53
2022-08-18T16:49:18.738Z,99142.38
2022-08-18T16:50:21.180Z,99141.34
2022-08-18T16:51:23.756Z,99138.89
2022-08-18T16:52:26.223Z,99143.11
2022-08-18T16:53:39.965Z,99141.87
2022-08-18T16:54:32.896Z,99138.53
2022-08-18T16:55:35.315Z,99142.45
2022-08-18T16:56:37.800Z,99134.80
2022-08-18T16:57:50.650Z,99138.58
2022-08-18T16:58:42.782Z,99139.11
2022-08-18T16:59:45.348Z,99138.72
2022-08-18T17:00:48.507Z,99137.09
2022-08-18T17:01:50.402Z,99138.08
2022-08-18T17:02:53.074Z,99139.63
2022-08-18T17:03:55.467Z,99138.80
2022-08-18T17:04:57.944Z,99136.57
2022-08-18T17:06:02.030Z,99134.00
2022-08-18T17:07:04.480Z,99137.81
2022-08-18T17:08:06.958Z,99134.55
2022-08-18T17:09:09.791Z,99130.34
2022-08-18T17:10:13.618Z,99136.83
2022-08-18T17:11:15.993Z,99132.63
2022-08-18T17:12:18.511Z,99133.09
2022-08-18T17:13:22.604Z,99132.50
2022-08-18T17:14:24.983Z,99138.17
2022-08-18T17:15:27.474Z,99133.83
2022-08-18T17:16:30.030Z,99134.72
2022-08-18T17:17:32.462Z,99131.98
2022-08-18T17:27:12.158Z,99139.52
2022-08-18T17:28:10.094Z,99141.41
2022-08-18T17:29:11.701Z,99137.11
2022-08-18T17:30:14.206Z,99139.00
2022-08-18T17:31:18.336Z,99137.03
2022-08-18T17:32:20.689Z,99139.52
2022-08-18T17:33:23.280Z,99139.74
2022-08-18T17:34:25.753Z,99143.38
2022-08-18T17:35:29.898Z,99143.13
2022-08-18T17:36:35.247Z,99145.09
2022-08-18T17:37:37.520Z,99142.66
2022-08-18T17:38:40.031Z,99143.86
2022-08-18T17:39:42.559Z,99142.78
2022-08-18T17:40:45.038Z,99139.95
2022-08-18T17:41:49.203Z,99134.66
2022-08-18T17:42:53.466Z,99137.38
2022-08-18T17:43:55.638Z,99136.69
2022-08-18T17:44:58.199Z,99136.95
2022-08-18T17:46:00.752Z,99140.75
2022-08-18T17:47:03.314Z,99139.47
2022-08-18T17:48:05.841Z,99140.70
2022-08-18T17:49:09.930Z,99140.70
2022-08-18T17:50:26.676Z,99147.00
2022-08-18T17:51:16.275Z,99141.50
2022-08-18T17:52:18.752Z,99136.13
2022-08-18T17:53:22.818Z,99142.22
2022-08-18T17:54:26.787Z,99140.28
2022-08-18T17:55:29.154Z,99144.91
2022-08-18T17:56:35.308Z,99141.42
2022-08-18T17:57:35.590Z,99141.34
2022-08-18T17:58:39.662Z,99138.51
2022-08-18T17:59:43.056Z,99141.20
2022-08-18T18:00:44.591Z,99137.08
2022-08-18T18:01:47.096Z,99140.20
2022-08-18T18:02:49.604Z,99144.17
2022-08-18T18:03:52.060Z,99142.88
2022-08-18T18:04:56.184Z,99145.03
2022-08-18T18:05:58.610Z,99144.45
2022-08-18T18:07:01.107Z,99139.65
2022-08-18T18:08:03.581Z,99147.23
2022-08-18T18:09:06.081Z,99149.37
2022-08-18T18:10:08.574Z,99149.05
2022-08-18T18:11:11.089Z,99149.05
2022-08-18T18:12:13.569Z,99145.04
2022-08-18T18:13:16.007Z,99151.33
2022-08-18T18:14:18.567Z,99151.44
2022-08-18T18:15:21.035Z,99151.69
2022-08-18T18:16:23.517Z,99150.00
2022-08-18T18:17:27.651Z,99152.69
2022-08-18T18:18:30.074Z,99150.65
2022-08-18T18:19:32.617Z,99150.38
2022-08-18T18:20:35.127Z,99147.23
2022-08-18T18:21:53.159Z,99146.31
2022-08-18T18:22:42.022Z,99144.34
2022-08-18T18:23:44.455Z,99146.59
2022-08-18T18:24:48.575Z,99141.04
2022-08-18T18:25:51.008Z,99141.75
2022-08-18T18:26:53.602Z,99146.03
2022-08-18T18:27:57.526Z,99145.97
2022-08-18T18:28:59.954Z,99148.81
2022-08-18T18:30:05.372Z,99144.55
2022-08-18T18:31:07.590Z,99148.48
2022-08-18T18:32:11.748Z,99148.76
2022-08-18T18:33:16.678Z,99147.50
2022-08-18T18:34:23.134Z,99147.06
2022-08-18T18:35:23.765Z,99144.22
2022-08-18T18:36:25.594Z,99148.69
2022-08-18T18:45:55.447Z,99157.73
2022-08-18T18:47:01.403Z,99154.58
2022-08-18T18:48:00.725Z,99156.30
2022-08-18T18:49:03.247Z,99161.41
2022-08-18T18:50:07.186Z,99157.48
2022-08-18T18:51:12.107Z,99160.80
2022-08-18T19:00:41.907Z,99151.83
2022-08-18T19:10:18.071Z,99150.29
2022-08-18T19:19:52.539Z,99160.98
2022-08-18T19:29:24.953Z,99162.04
2022-08-18T19:30:29.085Z,99162.80
2022-08-18T19:40:00.459Z,99169.69
2022-08-18T19:49:35.726Z,99183.67
2022-08-18T19:59:15.924Z,99176.69
2022-08-18T20:08:34.955Z,99167.77
2022-08-18T20:18:08.425Z,99168.28
2022-08-18T20:27:42.628Z,99160.22
2022-08-18T20:28:45.093Z,99163.05
2022-08-18T20:38:17.998Z,99167.31
2022-08-18T20:47:54.285Z,99182.41
2022-08-18T20:57:28.517Z,99188.53
2022-08-18T21:07:12.066Z,99190.81
2022-08-18T21:16:38.098Z,99192.80
2022-08-18T21:26:11.689Z,99200.81
2022-08-18T21:35:44.379Z,99181.64
2022-08-18T21:45:19.241Z,99185.92
2022-08-18T21:54:54.677Z,99187.00
2022-08-18T22:04:27.137Z,99177.47
2022-08-18T22:14:03.240Z,99182.99
2022-08-18T22:23:37.919Z,99193.50
2022-08-18T22:33:09.921Z,99205.83
2022-08-18T22:42:44.618Z,99221.44
2022-08-18T22:52:19.350Z,99230.44
2022-08-18T23:01:55.378Z,99243.14
2022-08-18T23:11:30.299Z,99249.97
2022-08-18T23:21:03.447Z,99249.56
2022-08-18T23:30:37.900Z,99235.45
2022-08-18T23:40:12.907Z,99213.87
2022-08-18T23:49:47.367Z,99222.39
2022-08-18T23:59:22.360Z,99226.45
